Time;durP1;ratioP1;P1;durP2;ratioP2;P2;SDS_P1;SDS_P2;PMS_P1;PMS_P2;Temp;Humidity;BMP_temperature;BMP_pressure;BME280_temperature;BME280_humidity;BME280_pressure;Samples;Min_cycle;Max_cycle;Signal;HPM_P1;HPM_P2
2023/09/25 00:01:30;;;;;;;4.13;2.40;;;;;;;;;;5074806;28;20039;-61
2023/09/25 00:03:56;;;;;;;7.07;2.88;;;;;;;;;;5096430;28;20046;-61
2023/09/25 00:06:22;;;;;;;5.85;2.55;;;;;;;;;;5094967;28;20047;-61
2023/09/25 00:08:48;;;;;;;5.53;2.70;;;;;;;;;;5106234;28;20044;-61
2023/09/25 00:11:14;;;;;;;5.38;2.65;;;;;;;;;;5108847;28;20043;-61
2023/09/25 00:13:40;;;;;;;4.85;2.60;;;;;;;;;;5106669;28;20063;-61
2023/09/25 00:16:14;;;;;;;4.72;2.55;;;;;;;;;;5108705;28;20036;-61
2023/09/25 00:18:41;;;;;;;6.82;2.58;;;;;;;;;;5107248;28;20044;-62
2023/09/25 00:21:07;;;;;;;7.10;2.40;;;;;;;;;;5110112;28;20051;-61
2023/09/25 00:23:33;;;;;;;4.63;2.67;;;;;;;;;;5107583;28;20060;-61
2023/09/25 00:26:04;;;;;;;6.88;2.60;;;;;;;;;;5107020;28;20410;-61
2023/09/25 00:28:30;;;;;;;6.30;2.65;;;;;;;;;;5108757;28;20024;-61
2023/09/25 00:30:56;;;;;;;6.60;2.25;;;;;;;;;;5090256;28;20058;-61
2023/09/25 00:33:22;;;;;;;7.03;2.30;;;;;;;;;;5106940;28;20046;-61
2023/09/25 00:35:49;;;;;;;5.53;2.50;;;;;;;;;;5107919;28;20040;-61
2023/09/25 00:38:15;;;;;;;5.25;2.40;;;;;;;;;;5108153;28;20048;-61
2023/09/25 00:40:42;;;;;;;4.40;2.25;;;;;;;;;;5090326;28;20039;-61
2023/09/25 00:43:11;;;;;;;5.72;2.50;;;;;;;;;;5085720;28;20042;-61
2023/09/25 00:45:37;;;;;;;4.95;2.40;;;;;;;;;;5086226;28;20042;-60
2023/09/25 00:48:05;;;;;;;4.15;2.33;;;;;;;;;;5084637;28;20036;-61
2023/09/25 00:50:32;;;;;;;4.80;2.13;;;;;;;;;;5109132;28;20039;-60
2023/09/25 00:53:06;;;;;;;7.72;2.28;;;;;;;;;;5108387;28;20055;-61
2023/09/25 00:55:34;;;;;;;5.78;2.40;;;;;;;;;;5088980;28;20522;-61
2023/09/25 00:58:01;;;;;;;5.78;2.90;;;;;;;;;;5095601;28;20039;-61
2023/09/25 01:00:27;;;;;;;5.38;2.65;;;;;;;;;;5109023;28;20529;-61
2023/09/25 01:02:53;;;;;;;5.13;2.40;;;;;;;;;;5072332;28;20035;-61
2023/09/25 01:05:19;;;;;;;3.78;2.38;;;;;;;;;;5090116;28;20489;-60
2023/09/25 01:07:45;;;;;;;8.52;2.50;;;;;;;;;;5088730;28;20491;-61
2023/09/25 01:10:16;;;;;;;5.03;2.65;;;;;;;;;;5108415;28;20046;-60
2023/09/25 01:12:47;;;;;;;4.15;2.17;;;;;;;;;;5107083;28;20046;-61
2023/09/25 01:15:14;;;;;;;4.65;2.47;;;;;;;;;;5087134;28;20023;-60
2023/09/25 01:17:41;;;;;;;4.40;2.30;;;;;;;;;;5104677;28;20048;-61
2023/09/25 01:20:13;;;;;;;4.72;1.98;;;;;;;;;;5107913;28;20032;-60
2023/09/25 01:22:44;;;;;;;5.88;2.50;;;;;;;;;;5087204;28;20050;-60
2023/09/25 01:25:10;;;;;;;4.65;2.33;;;;;;;;;;5104178;28;20027;-60
2023/09/25 01:27:42;;;;;;;6.80;2.45;;;;;;;;;;5071721;28;20035;-61
2023/09/25 01:30:09;;;;;;;7.10;2.40;;;;;;;;;;5087534;28;20046;-61
2023/09/25 01:32:37;;;;;;;6.70;2.78;;;;;;;;;;5107578;28;20039;-61
2023/09/25 01:35:07;;;;;;;4.13;2.00;;;;;;;;;;5102572;28;20529;-61
2023/09/25 01:37:34;;;;;;;4.22;2.50;;;;;;;;;;5086385;28;20031;-60
2023/09/25 01:40:01;;;;;;;3.67;2.30;;;;;;;;;;5084307;28;20052;-60
2023/09/25 01:42:27;;;;;;;4.55;2.40;;;;;;;;;;5074375;28;20038;-61
2023/09/25 01:44:53;;;;;;;4.20;2.17;;;;;;;;;;5085911;28;20471;-61
2023/09/25 01:47:20;;;;;;;5.90;2.50;;;;;;;;;;5100509;28;20419;-61
2023/09/25 01:49:46;;;;;;;4.00;1.98;;;;;;;;;;5087440;28;20050;-60
2023/09/25 01:52:14;;;;;;;4.93;2.58;;;;;;;;;;5090820;28;20117;-61
2023/09/25 01:54:40;;;;;;;5.28;2.42;;;;;;;;;;5088476;28;20047;-61
2023/09/25 01:57:06;;;;;;;4.53;2.35;;;;;;;;;;5090099;28;20415;-60
2023/09/25 01:59:32;;;;;;;4.57;2.25;;;;;;;;;;5090117;28;20046;-60
2023/09/25 02:01:58;;;;;;;4.00;2.10;;;;;;;;;;5090978;28;20043;-60
2023/09/25 02:04:24;;;;;;;4.90;2.38;;;;;;;;;;5105694;28;20038;-60
2023/09/25 02:06:50;;;;;;;4.43;2.00;;;;;;;;;;5106145;28;20028;-60
2023/09/25 02:09:16;;;;;;;4.93;2.40;;;;;;;;;;5106580;28;20533;-60
2023/09/25 02:11:42;;;;;;;5.78;2.10;;;;;;;;;;5076544;28;20058;-60
2023/09/25 02:14:08;;;;;;;3.22;1.95;;;;;;;;;;5092495;28;20034;-61
2023/09/25 02:16:35;;;;;;;3.75;1.90;;;;;;;;;;5075667;28;20035;-60
2023/09/25 02:19:01;;;;;;;3.65;1.95;;;;;;;;;;5091674;28;20498;-60
2023/09/25 02:21:27;;;;;;;4.88;2.03;;;;;;;;;;5092410;28;20036;-60
2023/09/25 02:23:53;;;;;;;6.00;2.10;;;;;;;;;;5103343;28;20035;-60
2023/09/25 02:26:19;;;;;;;4.75;1.83;;;;;;;;;;5104546;28;20411;-61
2023/09/25 02:28:45;;;;;;;5.30;2.28;;;;;;;;;;5102192;28;20040;-60
2023/09/25 02:31:13;;;;;;;5.07;2.08;;;;;;;;;;5083759;28;20046;-60
2023/09/25 02:33:39;;;;;;;4.35;1.80;;;;;;;;;;5103172;28;20077;-60
2023/09/25 02:36:07;;;;;;;5.80;2.55;;;;;;;;;;5105029;28;20062;-60
2023/09/25 02:38:33;;;;;;;7.10;2.00;;;;;;;;;;5070104;28;20055;-61
2023/09/25 02:41:00;;;;;;;5.93;2.40;;;;;;;;;;5088266;28;20055;-60
2023/09/25 02:43:26;;;;;;;3.67;1.65;;;;;;;;;;5088049;28;20458;-60
2023/09/25 02:45:53;;;;;;;5.85;2.00;;;;;;;;;;5084945;28;20415;-59
2023/09/25 02:48:21;;;;;;;6.05;2.75;;;;;;;;;;5102316;28;20059;-61
2023/09/25 02:50:48;;;;;;;5.13;2.00;;;;;;;;;;5084939;28;20043;-60
2023/09/25 02:53:15;;;;;;;5.30;2.30;;;;;;;;;;5084415;28;20043;-61
2023/09/25 02:55:47;;;;;;;4.65;2.03;;;;;;;;;;5084807;28;20050;-61
2023/09/25 02:58:13;;;;;;;7.93;2.80;;;;;;;;;;5084509;28;20048;-61
2023/09/25 03:00:39;;;;;;;6.88;2.00;;;;;;;;;;5088505;28;20503;-61
2023/09/25 03:03:05;;;;;;;5.00;2.15;;;;;;;;;;5072206;28;20382;-61
2023/09/25 03:05:32;;;;;;;5.15;2.10;;;;;;;;;;5103672;28;20035;-60
2023/09/25 03:07:58;;;;;;;4.65;1.70;;;;;;;;;;5086760;28;20043;-60
2023/09/25 03:10:24;;;;;;;6.18;2.50;;;;;;;;;;5107978;28;20031;-60
2023/09/25 03:12:51;;;;;;;5.30;2.13;;;;;;;;;;5103583;28;20052;-60
2023/09/25 03:15:18;;;;;;;5.93;2.42;;;;;;;;;;5083147;28;20056;-60
2023/09/25 03:17:44;;;;;;;5.47;2.13;;;;;;;;;;5087397;28;20035;-60
2023/09/25 03:20:17;;;;;;;7.82;2.58;;;;;;;;;;5104413;28;20047;-60
2023/09/25 03:22:45;;;;;;;4.05;2.03;;;;;;;;;;5087578;28;20398;-62
2023/09/25 03:25:13;;;;;;;5.28;2.10;;;;;;;;;;5104388;28;20044;-61
2023/09/25 03:27:39;;;;;;;6.47;2.10;;;;;;;;;;5086409;28;20042;-61
2023/09/25 03:30:05;;;;;;;6.03;2.22;;;;;;;;;;5106203;28;20035;-60
2023/09/25 03:32:32;;;;;;;3.88;2.50;;;;;;;;;;5090640;28;20062;-61
2023/09/25 03:35:01;;;;;;;5.80;2.50;;;;;;;;;;5093417;28;20048;-58
2023/09/25 03:37:27;;;;;;;8.18;2.45;;;;;;;;;;5091105;28;20035;-60
2023/09/25 03:39:53;;;;;;;5.90;2.28;;;;;;;;;;5093495;28;20407;-59
2023/09/25 03:42:19;;;;;;;6.72;2.55;;;;;;;;;;5104703;28;20054;-61
2023/09/25 03:44:45;;;;;;;5.63;2.55;;;;;;;;;;5090722;28;20032;-61
2023/09/25 03:47:11;;;;;;;5.95;2.47;;;;;;;;;;5103585;28;20110;-60
2023/09/25 03:49:39;;;;;;;5.65;2.92;;;;;;;;;;5095821;28;20042;-62
2023/09/25 03:52:05;;;;;;;7.68;3.05;;;;;;;;;;5093936;28;20043;-60
2023/09/25 03:54:31;;;;;;;7.90;3.25;;;;;;;;;;5091422;28;20522;-60
2023/09/25 03:56:58;;;;;;;6.50;3.20;;;;;;;;;;5067873;28;20047;-61
2023/09/25 03:59:24;;;;;;;6.28;3.22;;;;;;;;;;5092794;28;20048;-60
2023/09/25 04:01:50;;;;;;;6.10;3.50;;;;;;;;;;5108717;28;20038;-61
2023/09/25 04:04:16;;;;;;;7.30;3.80;;;;;;;;;;5108993;28;20032;-60
2023/09/25 04:06:42;;;;;;;7.22;3.70;;;;;;;;;;5105776;28;20407;-60
2023/09/25 04:09:09;;;;;;;7.80;3.33;;;;;;;;;;5110182;28;20034;-61
2023/09/25 04:11:35;;;;;;;6.10;3.28;;;;;;;;;;5109491;28;20038;-60
2023/09/25 04:14:02;;;;;;;9.48;3.83;;;;;;;;;;5093574;28;20094;-61
2023/09/25 04:16:28;;;;;;;6.97;3.65;;;;;;;;;;5107338;28;20403;-61
2023/09/25 04:18:55;;;;;;;7.00;3.88;;;;;;;;;;5106191;28;20060;-60
2023/09/25 04:21:21;;;;;;;7.88;3.92;;;;;;;;;;5080493;28;20031;-61
2023/09/25 04:23:48;;;;;;;6.97;4.03;;;;;;;;;;5108122;28;20053;-61
2023/09/25 04:26:14;;;;;;;6.65;3.70;;;;;;;;;;5107336;28;20031;-60
2023/09/25 04:28:40;;;;;;;6.28;3.88;;;;;;;;;;5107062;28;20024;-60
2023/09/25 04:31:07;;;;;;;7.07;3.83;;;;;;;;;;5108511;28;20052;-61
2023/09/25 04:33:35;;;;;;;7.85;4.15;;;;;;;;;;5107549;28;20051;-60
2023/09/25 04:36:01;;;;;;;8.25;4.03;;;;;;;;;;5107434;28;20498;-60
2023/09/25 04:38:28;;;;;;;8.35;3.90;;;;;;;;;;5104741;28;20432;-60
2023/09/25 04:40:57;;;;;;;8.25;3.90;;;;;;;;;;5108787;28;20035;-60
2023/09/25 04:43:23;;;;;;;11.02;3.55;;;;;;;;;;5107221;28;20038;-61
2023/09/25 04:45:55;;;;;;;7.63;3.40;;;;;;;;;;5109337;28;20522;-60
2023/09/25 04:48:29;;;;;;;6.00;3.72;;;;;;;;;;5110952;28;20031;-60
2023/09/25 04:50:56;;;;;;;8.65;4.35;;;;;;;;;;5109057;28;20051;-60
2023/09/25 04:53:22;;;;;;;9.73;4.97;;;;;;;;;;5108202;28;20033;-60
2023/09/25 04:55:49;;;;;;;9.68;5.30;;;;;;;;;;5105753;28;20052;-61
2023/09/25 04:58:15;;;;;;;10.60;5.90;;;;;;;;;;5108085;28;20031;-58
2023/09/25 05:00:44;;;;;;;6.72;4.15;;;;;;;;;;5107919;28;20483;-60
2023/09/25 05:03:10;;;;;;;5.40;3.80;;;;;;;;;;5106982;28;20457;-61
2023/09/25 05:05:36;;;;;;;8.85;4.40;;;;;;;;;;5088293;28;20027;-61
2023/09/25 05:08:02;;;;;;;8.18;3.72;;;;;;;;;;5106873;28;20032;-59
2023/09/25 05:10:29;;;;;;;7.82;3.70;;;;;;;;;;5106843;28;20054;-59
2023/09/25 05:12:56;;;;;;;6.60;3.80;;;;;;;;;;5107275;27;20047;-59
2023/09/25 05:15:23;;;;;;;7.82;3.00;;;;;;;;;;5085141;28;20486;-59
2023/09/25 05:17:50;;;;;;;5.25;3.55;;;;;;;;;;5106827;28;20044;-59
2023/09/25 05:20:22;;;;;;;6.45;3.38;;;;;;;;;;5090064;28;20383;-59
2023/09/25 05:22:50;;;;;;;7.93;3.65;;;;;;;;;;5107037;28;20028;-59
2023/09/25 05:25:17;;;;;;;5.32;3.00;;;;;;;;;;5105676;28;20038;-59
2023/09/25 05:27:51;;;;;;;6.72;3.75;;;;;;;;;;5106494;28;20051;-59
2023/09/25 05:30:18;;;;;;;7.10;3.97;;;;;;;;;;5107840;28;20391;-59
2023/09/25 05:32:46;;;;;;;7.63;3.53;;;;;;;;;;5106271;28;20047;-59
2023/09/25 05:35:12;;;;;;;5.05;3.38;;;;;;;;;;5104438;28;20058;-58
2023/09/25 05:37:39;;;;;;;7.45;3.65;;;;;;;;;;5105081;28;20042;-59
2023/09/25 05:40:09;;;;;;;6.55;3.15;;;;;;;;;;5104812;28;20426;-59
2023/09/25 05:42:37;;;;;;;6.38;2.92;;;;;;;;;;5104240;28;20028;-58
2023/09/25 05:45:05;;;;;;;8.20;3.97;;;;;;;;;;5105316;28;20042;-59
2023/09/25 05:47:32;;;;;;;6.90;4.35;;;;;;;;;;5091271;28;20035;-58
2023/09/25 05:50:00;;;;;;;10.48;5.70;;;;;;;;;;5105684;28;20038;-57
2023/09/25 05:52:26;;;;;;;19.17;8.57;;;;;;;;;;5107779;28;20028;-59
2023/09/25 05:54:52;;;;;;;10.98;4.97;;;;;;;;;;5086645;28;20040;-59
2023/09/25 05:57:19;;;;;;;18.60;7.10;;;;;;;;;;5107098;28;20043;-59
2023/09/25 05:59:45;;;;;;;8.70;4.55;;;;;;;;;;5105527;28;20523;-60
2023/09/25 06:02:11;;;;;;;11.73;5.20;;;;;;;;;;5107286;28;20130;-60
2023/09/25 06:04:38;;;;;;;15.80;6.80;;;;;;;;;;5104303;28;20043;-60
2023/09/25 06:07:04;;;;;;;9.32;3.28;;;;;;;;;;5106395;28;20035;-60
2023/09/25 06:09:32;;;;;;;12.77;5.53;;;;;;;;;;5107575;28;20030;-60
2023/09/25 06:11:58;;;;;;;14.98;5.95;;;;;;;;;;5105057;28;20055;-59
2023/09/25 06:14:27;;;;;;;18.42;6.57;;;;;;;;;;5104152;28;20042;-60
2023/09/25 06:16:56;;;;;;;14.15;5.05;;;;;;;;;;5103189;28;20236;-60
2023/09/25 06:19:24;;;;;;;13.73;5.60;;;;;;;;;;5107172;28;20027;-60
2023/09/25 06:21:51;;;;;;;8.32;4.70;;;;;;;;;;5104460;28;20041;-59
2023/09/25 06:24:17;;;;;;;8.10;4.30;;;;;;;;;;5101735;28;20059;-59
2023/09/25 06:26:46;;;;;;;11.20;5.70;;;;;;;;;;5106410;28;20034;-59
2023/09/25 06:29:13;;;;;;;8.30;3.85;;;;;;;;;;5107106;28;20538;-60
2023/09/25 06:31:40;;;;;;;11.75;6.20;;;;;;;;;;5104765;28;20035;-60
2023/09/25 06:34:09;;;;;;;9.90;4.15;;;;;;;;;;5102888;28;20028;-60
2023/09/25 06:36:36;;;;;;;9.90;4.13;;;;;;;;;;5106798;28;20032;-59
2023/09/25 06:39:08;;;;;;;7.03;4.07;;;;;;;;;;5089242;28;20657;-59
2023/09/25 06:41:39;;;;;;;7.82;4.35;;;;;;;;;;5092227;28;20047;-59
2023/09/25 06:44:05;;;;;;;8.27;4.53;;;;;;;;;;5104320;28;20040;-59
2023/09/25 06:46:33;;;;;;;10.35;4.45;;;;;;;;;;5107025;28;20043;-59
2023/09/25 06:49:00;;;;;;;10.18;4.50;;;;;;;;;;5105085;28;20135;-59
2023/09/25 06:51:28;;;;;;;9.00;4.40;;;;;;;;;;5107677;28;20032;-60
2023/09/25 06:53:55;;;;;;;10.32;4.70;;;;;;;;;;5101413;28;20051;-59
2023/09/25 06:56:21;;;;;;;13.30;6.47;;;;;;;;;;5089066;28;20442;-59
2023/09/25 06:58:47;;;;;;;10.38;5.22;;;;;;;;;;5105239;28;20043;-59
2023/09/25 07:01:13;;;;;;;9.07;4.18;;;;;;;;;;5105287;28;20398;-59
2023/09/25 07:03:40;;;;;;;6.80;4.05;;;;;;;;;;5101269;28;20051;-59
2023/09/25 07:06:06;;;;;;;11.05;4.63;;;;;;;;;;5105668;28;20028;-59
2023/09/25 07:08:32;;;;;;;8.68;4.60;;;;;;;;;;5091844;28;20031;-59
2023/09/25 07:10:59;;;;;;;9.60;4.47;;;;;;;;;;5108373;28;20032;-59
2023/09/25 07:13:25;;;;;;;8.98;4.30;;;;;;;;;;5108984;28;20031;-60
2023/09/25 07:15:52;;;;;;;14.93;4.43;;;;;;;;;;5107318;28;20043;-60
2023/09/25 07:18:18;;;;;;;13.35;5.07;;;;;;;;;;5090471;28;20031;-58
2023/09/25 07:20:52;;;;;;;11.20;6.07;;;;;;;;;;5109475;28;20036;-59
2023/09/25 07:23:18;;;;;;;19.75;6.47;;;;;;;;;;5083342;28;20035;-59
2023/09/25 07:25:44;;;;;;;15.25;6.28;;;;;;;;;;5104662;28;20035;-59
2023/09/25 07:28:11;;;;;;;25.15;8.88;;;;;;;;;;5105883;28;20043;-58
2023/09/25 07:30:46;;;;;;;19.30;9.55;;;;;;;;;;5105531;28;20038;-58
2023/09/25 07:33:12;;;;;;;15.90;7.10;;;;;;;;;;5104560;28;20050;-58
2023/09/25 07:35:39;;;;;;;13.50;6.57;;;;;;;;;;5111622;28;20027;-58
2023/09/25 07:38:05;;;;;;;14.23;6.72;;;;;;;;;;5105237;28;20035;-58
2023/09/25 07:40:31;;;;;;;16.25;6.82;;;;;;;;;;5110738;28;20388;-59
2023/09/25 07:42:57;;;;;;;16.38;6.65;;;;;;;;;;5108575;28;20051;-58
2023/09/25 07:45:25;;;;;;;17.42;7.35;;;;;;;;;;5109901;28;20037;-59
2023/09/25 07:47:54;;;;;;;14.38;7.28;;;;;;;;;;5109188;28;20039;-59
2023/09/25 07:50:24;;;;;;;15.13;5.22;;;;;;;;;;5092508;28;20050;-59
2023/09/25 07:52:54;;;;;;;10.95;4.78;;;;;;;;;;5107422;28;20526;-59
2023/09/25 07:55:21;;;;;;;11.25;5.45;;;;;;;;;;5109140;28;20059;-59
2023/09/25 07:57:48;;;;;;;10.48;4.65;;;;;;;;;;5110887;28;20032;-59
2023/09/25 08:00:22;;;;;;;9.57;4.68;;;;;;;;;;5108165;28;20046;-59
2023/09/25 08:02:51;;;;;;;15.23;5.45;;;;;;;;;;5106832;28;20047;-59
2023/09/25 08:05:18;;;;;;;;;;;;;;;;;;5108956;28;20123;-59
2023/09/25 08:07:45;;;;;;;10.18;5.00;;;;;;;;;;5108764;28;19915;-59
2023/09/25 08:10:12;;;;;;;10.35;5.15;;;;;;;;;;5105823;28;20031;-59
2023/09/25 08:12:38;;;;;;;13.30;5.63;;;;;;;;;;5089930;28;20043;-59
2023/09/25 08:15:06;;;;;;;12.65;6.05;;;;;;;;;;5105265;28;20056;-59
2023/09/25 08:17:32;;;;;;;11.05;5.45;;;;;;;;;;5092137;28;20027;-59
2023/09/25 08:20:01;;;;;;;13.95;6.20;;;;;;;;;;5090673;28;20040;-62
2023/09/25 08:22:27;;;;;;;13.77;5.35;;;;;;;;;;5106892;28;20044;-60
2023/09/25 08:24:53;;;;;;;12.45;6.32;;;;;;;;;;5105551;28;20399;-60
2023/09/25 08:27:20;;;;;;;13.00;5.53;;;;;;;;;;5109937;28;20030;-60
2023/09/25 08:29:47;;;;;;;12.02;6.45;;;;;;;;;;5104913;28;20063;-60
2023/09/25 08:32:14;;;;;;;13.07;5.30;;;;;;;;;;5107423;28;20028;-60
2023/09/25 08:34:41;;;;;;;11.20;5.35;;;;;;;;;;5108535;28;20047;-60
2023/09/25 08:37:07;;;;;;;15.93;5.40;;;;;;;;;;5110235;28;20110;-60
2023/09/25 08:39:33;;;;;;;10.32;5.57;;;;;;;;;;5109068;28;20043;-60
2023/09/25 08:42:00;;;;;;;17.33;5.45;;;;;;;;;;5096506;28;20047;-60
2023/09/25 08:44:26;;;;;;;9.10;5.85;;;;;;;;;;5100550;28;20411;-59
2023/09/25 08:46:52;;;;;;;10.73;4.78;;;;;;;;;;5106393;28;20032;-59
2023/09/25 08:49:19;;;;;;;11.18;5.13;;;;;;;;;;5108576;28;20039;-60
2023/09/25 08:51:45;;;;;;;9.18;5.00;;;;;;;;;;5107431;28;20032;-59
2023/09/25 08:54:11;;;;;;;13.48;5.22;;;;;;;;;;5101189;28;20086;-59
2023/09/25 08:56:39;;;;;;;11.20;5.15;;;;;;;;;;5108249;28;20038;-60
2023/09/25 08:59:05;;;;;;;10.50;4.75;;;;;;;;;;5109143;28;20031;-60
2023/09/25 09:01:32;;;;;;;11.65;5.00;;;;;;;;;;5105243;28;20051;-59
2023/09/25 09:03:59;;;;;;;10.65;4.85;;;;;;;;;;5089006;28;20023;-59
2023/09/25 09:06:25;;;;;;;10.20;4.43;;;;;;;;;;5108516;28;20039;-60
2023/09/25 09:08:51;;;;;;;10.23;4.53;;;;;;;;;;5107742;28;20031;-60
2023/09/25 09:11:20;;;;;;;9.50;4.20;;;;;;;;;;5106736;28;20040;-59
2023/09/25 09:13:47;;;;;;;9.77;4.53;;;;;;;;;;5104411;28;20127;-60
2023/09/25 09:16:17;;;;;;;10.55;4.43;;;;;;;;;;5101473;28;20042;-60
2023/09/25 09:18:45;;;;;;;11.27;4.45;;;;;;;;;;5106231;28;20529;-60
2023/09/25 09:21:27;;;;;;;11.45;4.35;;;;;;;;;;5103958;28;20035;-60
2023/09/25 09:23:55;;;;;;;10.35;4.05;;;;;;;;;;5104715;28;20028;-59
2023/09/25 09:26:23;;;;;;;8.30;4.15;;;;;;;;;;5107241;28;20039;-61
2023/09/25 09:28:49;;;;;;;12.15;6.20;;;;;;;;;;5106165;28;20043;-60
2023/09/25 09:31:19;;;;;;;9.40;4.13;;;;;;;;;;5106721;28;20039;-59
2023/09/25 09:33:45;;;;;;;6.72;4.15;;;;;;;;;;5101185;28;20337;-59
2023/09/25 09:36:13;;;;;;;6.95;4.05;;;;;;;;;;5107821;28;20043;-59
2023/09/25 09:38:39;;;;;;;8.20;3.65;;;;;;;;;;5108883;28;20522;-59
2023/09/25 09:41:06;;;;;;;10.98;4.05;;;;;;;;;;5105133;28;20039;-59
2023/09/25 09:43:33;;;;;;;8.20;4.22;;;;;;;;;;5107575;28;20035;-59
2023/09/25 09:46:00;;;;;;;8.35;4.05;;;;;;;;;;5108204;28;20521;-60
2023/09/25 09:48:31;;;;;;;10.73;4.10;;;;;;;;;;5075863;28;20047;-59
2023/09/25 09:51:03;;;;;;;9.30;3.78;;;;;;;;;;5106761;28;20040;-59
2023/09/25 09:53:35;;;;;;;6.45;3.60;;;;;;;;;;5105797;28;20047;-59
2023/09/25 09:56:01;;;;;;;7.38;4.07;;;;;;;;;;5104513;28;20040;-60
2023/09/25 09:58:28;;;;;;;7.50;3.95;;;;;;;;;;5105115;28;20495;-59
2023/09/25 10:00:59;;;;;;;6.68;4.15;;;;;;;;;;5105499;28;20051;-59
2023/09/25 10:03:28;;;;;;;9.45;4.20;;;;;;;;;;5103678;28;20046;-60
2023/09/25 10:05:56;;;;;;;10.57;4.15;;;;;;;;;;5096399;28;20040;-59
2023/09/25 10:08:22;;;;;;;8.48;3.97;;;;;;;;;;5105936;28;20028;-60
2023/09/25 10:10:51;;;;;;;11.32;4.10;;;;;;;;;;5107486;28;20032;-59
2023/09/25 10:13:28;;;;;;;7.63;4.28;;;;;;;;;;5102547;28;20390;-59
2023/09/25 10:16:01;;;;;;;6.95;3.97;;;;;;;;;;5105174;28;20047;-59
2023/09/25 10:18:30;;;;;;;7.85;3.75;;;;;;;;;;5105945;28;20430;-60
2023/09/25 10:21:09;;;;;;;9.50;3.63;;;;;;;;;;5105350;28;20048;-58
2023/09/25 10:23:49;;;;;;;6.22;4.05;;;;;;;;;;5106477;28;20061;-59
2023/09/25 10:26:18;;;;;;;8.73;3.40;;;;;;;;;;5104807;28;20036;-59
2023/09/25 10:28:55;;;;;;;7.68;3.97;;;;;;;;;;5108401;28;20039;-59
2023/09/25 10:31:24;;;;;;;7.13;3.50;;;;;;;;;;5062880;28;20024;-59
2023/09/25 10:33:59;;;;;;;7.60;3.78;;;;;;;;;;5104323;28;20402;-59
2023/09/25 10:36:37;;;;;;;7.40;3.75;;;;;;;;;;5099498;28;20040;-60
2023/09/25 10:39:15;;;;;;;6.93;3.50;;;;;;;;;;5106230;28;20040;-60
2023/09/25 10:41:45;;;;;;;7.73;3.70;;;;;;;;;;5107516;28;20027;-60
2023/09/25 10:44:12;;;;;;;8.18;3.47;;;;;;;;;;5090532;28;20047;-59
2023/09/25 10:46:39;;;;;;;7.38;3.70;;;;;;;;;;5106872;28;20039;-60
2023/09/25 10:49:06;;;;;;;7.85;3.67;;;;;;;;;;5107558;28;20028;-59
2023/09/25 10:51:32;;;;;;;6.72;3.17;;;;;;;;;;5104421;28;20046;-59
2023/09/25 10:54:01;;;;;;;6.25;3.70;;;;;;;;;;5086185;28;20475;-59
2023/09/25 10:56:27;;;;;;;8.93;3.10;;;;;;;;;;5106738;28;20038;-59
2023/09/25 10:58:55;;;;;;;6.75;3.75;;;;;;;;;;5105881;28;20039;-59
2023/09/25 11:01:27;;;;;;;7.00;3.40;;;;;;;;;;5104862;28;20211;-59
2023/09/25 11:03:56;;;;;;;7.10;3.40;;;;;;;;;;5103402;28;20052;-59
2023/09/25 11:06:23;;;;;;;7.65;3.15;;;;;;;;;;5105947;28;20038;-59
2023/09/25 11:09:06;;;;;;;5.78;3.35;;;;;;;;;;5105750;28;20023;-59
2023/09/25 11:11:32;;;;;;;4.97;3.17;;;;;;;;;;5104299;28;20119;-59
2023/09/25 11:13:58;;;;;;;8.02;3.45;;;;;;;;;;5104130;28;20035;-59
2023/09/25 11:16:25;;;;;;;9.00;3.47;;;;;;;;;;5102608;28;20106;-59
2023/09/25 11:19:07;;;;;;;5.75;3.08;;;;;;;;;;5104911;28;20039;-59
2023/09/25 11:21:33;;;;;;;9.63;3.25;;;;;;;;;;5105895;28;20047;-59
2023/09/25 11:24:04;;;;;;;5.50;3.00;;;;;;;;;;5105087;28;20032;-59
2023/09/25 11:26:34;;;;;;;5.40;2.78;;;;;;;;;;5104556;28;20044;-60
2023/09/25 11:29:01;;;;;;;5.57;2.67;;;;;;;;;;5105950;28;20035;-60
2023/09/25 11:31:27;;;;;;;4.32;2.90;;;;;;;;;;5086107;28;20051;-60
2023/09/25 11:33:54;;;;;;;6.72;2.60;;;;;;;;;;5097946;28;20036;-59
2023/09/25 11:36:20;;;;;;;9.30;2.92;;;;;;;;;;5099241;28;20048;-59
2023/09/25 11:38:50;;;;;;;4.72;2.97;;;;;;;;;;5089845;28;20038;-59
2023/09/25 11:41:16;;;;;;;4.70;2.50;;;;;;;;;;5105926;28;20047;-59
2023/09/25 11:43:42;;;;;;;5.43;2.50;;;;;;;;;;5106370;28;20490;-59
2023/09/25 11:46:08;;;;;;;6.22;2.47;;;;;;;;;;5106262;28;20707;-59
2023/09/25 11:48:36;;;;;;;4.65;2.40;;;;;;;;;;5105621;28;20430;-59
2023/09/25 11:51:03;;;;;;;3.97;2.33;;;;;;;;;;5104370;28;20043;-59
2023/09/25 11:53:29;;;;;;;5.70;2.70;;;;;;;;;;5106853;28;20024;-59
2023/09/25 11:55:55;;;;;;;3.90;2.35;;;;;;;;;;5107993;28;20052;-59
2023/09/25 11:58:21;;;;;;;3.17;2.10;;;;;;;;;;5109287;28;20046;-59
2023/09/25 12:00:48;;;;;;;5.60;2.10;;;;;;;;;;5107858;28;20101;-60
2023/09/25 12:03:14;;;;;;;4.47;2.40;;;;;;;;;;5107596;28;20407;-60
2023/09/25 12:05:41;;;;;;;4.63;1.80;;;;;;;;;;5109305;28;20036;-60
2023/09/25 12:08:07;;;;;;;3.70;2.00;;;;;;;;;;5108828;28;20035;-60
2023/09/25 12:10:39;;;;;;;3.35;2.20;;;;;;;;;;5107545;28;20390;-60
2023/09/25 12:13:07;;;;;;;4.82;2.05;;;;;;;;;;5107161;28;20035;-59
2023/09/25 12:15:33;;;;;;;3.78;2.22;;;;;;;;;;5107924;28;20538;-59
2023/09/25 12:17:59;;;;;;;3.15;2.15;;;;;;;;;;5107213;28;20058;-58
2023/09/25 12:20:27;;;;;;;1.98;1.70;;;;;;;;;;5089360;28;20056;-59
2023/09/25 12:22:54;;;;;;;3.20;1.75;;;;;;;;;;5107828;28;20043;-59
2023/09/25 12:25:21;;;;;;;4.15;1.80;;;;;;;;;;5109467;28;20044;-59
2023/09/25 12:27:48;;;;;;;3.03;1.63;;;;;;;;;;5105987;28;20530;-59
2023/09/25 12:30:17;;;;;;;5.03;2.30;;;;;;;;;;5104916;28;20050;-59
2023/09/25 12:32:45;;;;;;;5.63;2.17;;;;;;;;;;5104639;28;20108;-59
2023/09/25 12:35:15;;;;;;;3.72;1.80;;;;;;;;;;5108380;28;20391;-59
2023/09/25 12:37:46;;;;;;;3.90;1.90;;;;;;;;;;5108297;28;20046;-58
2023/09/25 12:40:17;;;;;;;3.35;1.80;;;;;;;;;;5110093;28;20031;-60
2023/09/25 12:42:46;;;;;;;4.22;1.90;;;;;;;;;;5108835;28;20450;-59
2023/09/25 12:45:13;;;;;;;3.75;1.88;;;;;;;;;;5108156;28;20028;-60
2023/09/25 12:47:40;;;;;;;3.45;1.73;;;;;;;;;;5108034;28;20024;-60
2023/09/25 12:50:06;;;;;;;2.92;1.85;;;;;;;;;;5108480;28;20039;-60
2023/09/25 12:52:32;;;;;;;4.82;1.65;;;;;;;;;;5108265;28;20039;-59
2023/09/25 12:55:00;;;;;;;2.28;1.77;;;;;;;;;;5106927;28;20028;-59
2023/09/25 12:57:26;;;;;;;2.53;1.70;;;;;;;;;;5107417;28;20418;-59
2023/09/25 12:59:53;;;;;;;2.95;1.60;;;;;;;;;;5107977;28;20057;-59
2023/09/25 13:02:19;;;;;;;2.78;1.83;;;;;;;;;;5108449;28;20031;-59
2023/09/25 13:04:46;;;;;;;2.40;1.45;;;;;;;;;;5106802;28;20054;-59
2023/09/25 13:07:12;;;;;;;3.28;1.50;;;;;;;;;;5107011;28;20034;-59
2023/09/25 13:09:38;;;;;;;4.80;1.70;;;;;;;;;;5107431;28;20028;-58
2023/09/25 13:12:05;;;;;;;1.65;1.20;;;;;;;;;;5106741;28;20035;-59
2023/09/25 13:14:31;;;;;;;3.45;1.55;;;;;;;;;;5103668;28;20036;-59
2023/09/25 13:16:57;;;;;;;3.63;1.90;;;;;;;;;;5104862;28;20042;-64
2023/09/25 13:19:24;;;;;;;2.83;1.40;;;;;;;;;;5109027;28;20042;-60
2023/09/25 13:21:50;;;;;;;2.30;1.50;;;;;;;;;;5109308;28;20036;-60
2023/09/25 13:24:16;;;;;;;3.15;1.70;;;;;;;;;;5102933;28;20039;-60
2023/09/25 13:26:42;;;;;;;3.30;1.67;;;;;;;;;;5109431;28;20051;-60
2023/09/25 13:29:09;;;;;;;5.57;1.70;;;;;;;;;;5105732;28;20032;-60
2023/09/25 13:31:35;;;;;;;2.08;1.63;;;;;;;;;;5107795;28;20031;-60
2023/09/25 13:34:01;;;;;;;2.97;1.55;;;;;;;;;;5106425;28;20047;-60
2023/09/25 13:36:28;;;;;;;1.88;1.30;;;;;;;;;;5106927;28;20525;-60
2023/09/25 13:38:54;;;;;;;2.40;1.70;;;;;;;;;;5090449;28;20569;-60
2023/09/25 13:41:20;;;;;;;2.67;1.45;;;;;;;;;;5105392;28;20048;-61
2023/09/25 13:43:46;;;;;;;2.03;1.48;;;;;;;;;;5105839;28;20027;-60
2023/09/25 13:46:13;;;;;;;3.35;1.65;;;;;;;;;;5106405;28;20391;-60
2023/09/25 13:48:40;;;;;;;3.67;1.50;;;;;;;;;;5105659;28;20051;-60
2023/09/25 13:51:06;;;;;;;1.95;1.35;;;;;;;;;;5106015;28;20490;-60
2023/09/25 13:53:34;;;;;;;3.67;1.50;;;;;;;;;;5106372;28;20066;-60
2023/09/25 13:56:05;;;;;;;2.67;1.45;;;;;;;;;;5107315;28;20051;-60
2023/09/25 13:58:32;;;;;;;2.25;1.50;;;;;;;;;;5106506;28;20035;-61
2023/09/25 14:01:03;;;;;;;3.15;1.60;;;;;;;;;;5086297;28;20040;-60
2023/09/25 14:03:29;;;;;;;2.47;1.48;;;;;;;;;;5104770;28;20043;-60
2023/09/25 14:06:01;;;;;;;3.38;1.80;;;;;;;;;;5107357;28;20044;-60
2023/09/25 14:08:28;;;;;;;3.45;1.50;;;;;;;;;;5105475;28;20024;-60
2023/09/25 14:10:54;;;;;;;3.08;1.60;;;;;;;;;;5106536;28;20042;-60
2023/09/25 14:13:20;;;;;;;2.58;1.60;;;;;;;;;;5105358;28;20040;-60
2023/09/25 14:15:46;;;;;;;2.83;1.92;;;;;;;;;;5107058;28;20042;-60
2023/09/25 14:18:13;;;;;;;3.85;1.63;;;;;;;;;;5107461;28;20559;-60
2023/09/25 14:20:39;;;;;;;3.20;1.88;;;;;;;;;;5107309;28;20055;-61
2023/09/25 14:23:06;;;;;;;3.40;1.70;;;;;;;;;;5106975;28;20039;-59
2023/09/25 14:25:32;;;;;;;4.10;1.85;;;;;;;;;;5107581;28;20038;-61
2023/09/25 14:27:58;;;;;;;2.83;1.70;;;;;;;;;;5104925;28;20051;-59
2023/09/25 14:30:24;;;;;;;2.33;1.60;;;;;;;;;;5107636;28;20039;-59
2023/09/25 14:32:50;;;;;;;3.85;1.60;;;;;;;;;;5107631;28;20375;-59
2023/09/25 14:35:17;;;;;;;3.40;1.55;;;;;;;;;;5106047;28;20048;-60
2023/09/25 14:37:43;;;;;;;3.20;1.67;;;;;;;;;;5108128;28;20498;-59
2023/09/25 14:40:10;;;;;;;3.53;1.65;;;;;;;;;;5107734;28;20062;-60
2023/09/25 14:42:36;;;;;;;2.67;1.65;;;;;;;;;;5106496;28;20109;-60